Parham, Canada
Current Conditions -  °F | °C
As of 1:41 PM on Saturday 25 Oct 2014 (Local Time) from CYGK Reporting Station
Rain Showers Rain Showers  
Wind Chill: 57°   Ceiling: 2400
Heat Index: 57°   Visibility: 10mi
Dew Point: 52°   Wind: 16mph
Humidity: 82%   Direction: 210°SSW
Pressure: 29.59"   Gusts: NA
Location:  44.65°N, 76.72°W
Report Text: CYGK 251741Z 21014KT 10SM -SHRA BKN024 OVC090 14/11 A2959 RMK CU7AC1 SLP021 DENSITY ALT 600FT
Loading
Personal Weather Stations






























Interactive Weather Map
Tropical Storm Tracking
New forecast layout! Learn more

10-Day Weather Forecast

Advertisements
Track Severe Weather on mobile